Time;durP1;ratioP1;P1;durP2;ratioP2;P2;SDS_P1;SDS_P2;PMS_P1;PMS_P2;Temp;Humidity;BMP_temperature;BMP_pressure;BME280_temperature;BME280_humidity;BME280_pressure;Samples;Min_cycle;Max_cycle;Signal;HPM_P1;HPM_P2
2023/12/13 00:02:21;;;;;;;1.90;1.80;;;;;;;;;;5051536;28;20237;-85
2023/12/13 00:04:50;;;;;;;2.30;1.97;;;;;;;;;;5052445;28;20201;-84
2023/12/13 00:07:17;;;;;;;3.07;1.93;;;;;;;;;;5051606;28;20256;-84
2023/12/13 00:09:43;;;;;;;3.30;1.90;;;;;;;;;;5052397;28;20260;-84
2023/12/13 00:12:10;;;;;;;2.20;1.70;;;;;;;;;;5051276;28;20226;-85
2023/12/13 00:14:37;;;;;;;1.97;1.87;;;;;;;;;;5051823;28;20240;-85
2023/12/13 00:17:08;;;;;;;4.13;1.93;;;;;;;;;;5051367;28;20272;-85
2023/12/13 00:19:35;;;;;;;3.13;1.77;;;;;;;;;;5052312;28;20208;-85
2023/12/13 00:22:04;;;;;;;2.47;1.93;;;;;;;;;;5051235;28;20225;-85
2023/12/13 00:24:31;;;;;;;2.77;1.90;;;;;;;;;;5052172;28;20292;-85
2023/12/13 00:26:58;;;;;;;3.80;2.97;;;;;;;;;;5051132;28;20230;-85
2023/12/13 00:29:24;;;;;;;3.67;1.90;;;;;;;;;;5052022;28;20604;-85
2023/12/13 00:31:51;;;;;;;6.60;2.30;;;;;;;;;;5051259;28;20260;-84
2023/12/13 00:34:18;;;;;;;1.87;1.77;;;;;;;;;;5051584;28;20228;-85
2023/12/13 00:36:45;;;;;;;5.80;2.37;;;;;;;;;;5051225;28;20238;-85
2023/12/13 00:39:15;;;;;;;2.40;2.20;;;;;;;;;;5052153;28;20260;-85
2023/12/13 00:41:42;;;;;;;2.83;2.07;;;;;;;;;;5051240;28;20260;-85
2023/12/13 00:44:09;;;;;;;4.13;2.30;;;;;;;;;;5052030;28;20245;-84
2023/12/13 00:46:36;;;;;;;4.57;2.30;;;;;;;;;;5051062;28;20245;-85
2023/12/13 00:49:03;;;;;;;2.77;2.47;;;;;;;;;;5051985;28;20202;-85
2023/12/13 00:51:30;;;;;;;2.80;1.90;;;;;;;;;;5053117;28;20230;-85
2023/12/13 00:54:00;;;;;;;3.63;1.87;;;;;;;;;;5055736;28;20267;-85
2023/12/13 00:56:30;;;;;;;2.50;2.30;;;;;;;;;;5055164;28;20241;-85
2023/12/13 00:58:57;;;;;;;3.37;2.27;;;;;;;;;;5055655;28;20277;-85
2023/12/13 01:01:25;;;;;;;2.10;1.90;;;;;;;;;;5055245;28;20360;-85
2023/12/13 01:03:52;;;;;;;3.33;1.83;;;;;;;;;;5055820;28;20213;-85
2023/12/13 01:06:19;;;;;;;1.53;1.43;;;;;;;;;;5054974;28;20234;-84
2023/12/13 01:08:46;;;;;;;4.10;2.00;;;;;;;;;;5055718;28;20228;-85
2023/12/13 01:11:13;;;;;;;2.70;1.93;;;;;;;;;;5054814;28;20315;-85
2023/12/13 01:13:42;;;;;;;2.27;2.07;;;;;;;;;;5055064;28;20673;-85
2023/12/13 01:16:10;;;;;;;2.63;1.90;;;;;;;;;;5055105;28;20245;-85
2023/12/13 01:18:37;;;;;;;1.63;1.60;;;;;;;;;;5055218;28;20633;-85
2023/12/13 01:21:04;;;;;;;3.73;1.83;;;;;;;;;;5054765;28;20238;-85
2023/12/13 01:23:31;;;;;;;2.30;1.77;;;;;;;;;;5055621;28;20566;-85
2023/12/13 01:25:58;;;;;;;4.10;2.20;;;;;;;;;;5055164;28;20240;-85
2023/12/13 01:28:25;;;;;;;2.30;2.10;;;;;;;;;;5055096;28;20225;-85
2023/12/13 01:30:53;;;;;;;1.97;1.87;;;;;;;;;;5054627;28;20242;-85
2023/12/13 01:33:20;;;;;;;1.93;1.70;;;;;;;;;;5055354;28;20214;-85
2023/12/13 01:35:47;;;;;;;4.60;2.03;;;;;;;;;;5054693;28;20238;-84
2023/12/13 01:38:14;;;;;;;4.23;1.77;;;;;;;;;;5054948;28;20905;-85
2023/12/13 01:40:50;;;;;;;4.27;2.10;;;;;;;;;;5054688;28;20316;-84
2023/12/13 01:43:21;;;;;;;2.30;1.70;;;;;;;;;;5055198;28;20190;-85
2023/12/13 01:45:48;;;;;;;3.40;2.10;;;;;;;;;;5038411;28;20233;-85
2023/12/13 01:48:17;;;;;;;2.37;1.87;;;;;;;;;;5055123;28;20226;-85
2023/12/13 01:50:44;;;;;;;2.43;2.03;;;;;;;;;;5054109;28;20766;-85
2023/12/13 01:53:11;;;;;;;1.97;1.87;;;;;;;;;;5054999;28;20252;-85
2023/12/13 01:55:38;;;;;;;2.57;1.70;;;;;;;;;;5054212;28;20761;-85
2023/12/13 01:58:06;;;;;;;1.30;1.30;;;;;;;;;;5054477;28;20271;-85
2023/12/13 02:00:33;;;;;;;2.00;1.80;;;;;;;;;;5054062;28;20652;-85
2023/12/13 02:03:00;;;;;;;2.30;1.70;;;;;;;;;;5053727;28;20352;-85
2023/12/13 02:05:28;;;;;;;4.03;1.83;;;;;;;;;;5053624;28;20245;-85
2023/12/13 02:07:56;;;;;;;1.77;1.50;;;;;;;;;;5052962;28;20268;-85
2023/12/13 02:10:23;;;;;;;3.83;1.73;;;;;;;;;;5060432;28;20242;-85
2023/12/13 02:12:50;;;;;;;2.73;1.67;;;;;;;;;;5054443;28;20637;-85
2023/12/13 02:15:18;;;;;;;2.37;2.07;;;;;;;;;;5054116;28;20198;-85
2023/12/13 02:17:54;;;;;;;1.90;1.80;;;;;;;;;;5054461;28;20317;-85
2023/12/13 02:20:22;;;;;;;5.57;2.30;;;;;;;;;;5054501;28;20190;-85
2023/12/13 02:22:50;;;;;;;5.30;1.80;;;;;;;;;;5053451;28;20245;-85
2023/12/13 02:25:19;;;;;;;5.47;1.70;;;;;;;;;;5040841;28;20692;-84
2023/12/13 02:27:46;;;;;;;2.00;1.90;;;;;;;;;;5056522;28;20279;-85
2023/12/13 02:30:13;;;;;;;2.23;1.80;;;;;;;;;;5056965;28;20202;-85
2023/12/13 02:32:40;;;;;;;3.63;1.87;;;;;;;;;;5056770;28;20210;-85
2023/12/13 02:35:07;;;;;;;3.47;1.93;;;;;;;;;;5056065;28;20642;-85
2023/12/13 02:37:34;;;;;;;1.37;1.37;;;;;;;;;;5054577;28;20287;-85
2023/12/13 02:40:03;;;;;;;2.23;1.93;;;;;;;;;;5054344;28;20210;-86
2023/12/13 02:42:30;;;;;;;8.50;2.00;;;;;;;;;;5053804;28;20241;-86
2023/12/13 02:44:58;;;;;;;4.93;1.97;;;;;;;;;;5054282;28;20206;-86
2023/12/13 02:47:26;;;;;;;1.57;1.47;;;;;;;;;;5053271;28;20275;-86
2023/12/13 02:49:53;;;;;;;6.00;1.73;;;;;;;;;;5053934;28;20237;-86
2023/12/13 02:52:20;;;;;;;1.87;1.77;;;;;;;;;;5053150;28;20233;-86
2023/12/13 02:54:47;;;;;;;1.83;1.73;;;;;;;;;;5054036;28;20210;-86
2023/12/13 02:57:15;;;;;;;1.63;1.53;;;;;;;;;;5053015;28;20241;-86
2023/12/13 02:59:42;;;;;;;1.80;1.70;;;;;;;;;;5053810;28;20202;-86
2023/12/13 03:02:09;;;;;;;2.10;1.80;;;;;;;;;;5052925;28;20242;-86
2023/12/13 03:04:36;;;;;;;7.60;2.10;;;;;;;;;;5053980;28;20261;-86
2023/12/13 03:07:04;;;;;;;1.90;1.80;;;;;;;;;;5053096;28;20284;-86
2023/12/13 03:09:31;;;;;;;3.37;2.00;;;;;;;;;;5053321;28;20561;-85
2023/12/13 03:11:58;;;;;;;2.97;1.97;;;;;;;;;;5052862;28;20260;-86
2023/12/13 03:14:26;;;;;;;2.93;1.70;;;;;;;;;;5052965;28;20632;-86
2023/12/13 03:16:53;;;;;;;2.70;1.90;;;;;;;;;;5052809;28;20242;-86
2023/12/13 03:19:20;;;;;;;2.03;1.93;;;;;;;;;;5052519;28;20233;-86
2023/12/13 03:21:47;;;;;;;3.57;2.00;;;;;;;;;;5050112;28;20805;-85
2023/12/13 03:24:14;;;;;;;2.40;2.20;;;;;;;;;;5037655;28;20236;-86
2023/12/13 03:26:41;;;;;;;5.33;2.00;;;;;;;;;;5052735;28;20320;-86
2023/12/13 03:29:08;;;;;;;3.97;1.97;;;;;;;;;;5053042;28;20592;-85
2023/12/13 03:31:37;;;;;;;3.00;1.80;;;;;;;;;;5052352;28;20246;-86
2023/12/13 03:34:04;;;;;;;3.63;1.90;;;;;;;;;;5053200;28;20217;-86
2023/12/13 03:36:31;;;;;;;3.37;2.27;;;;;;;;;;5052864;28;20241;-85
2023/12/13 03:38:58;;;;;;;3.77;2.17;;;;;;;;;;5052677;28;20590;-86
2023/12/13 03:41:25;;;;;;;3.73;2.23;;;;;;;;;;5052239;28;20267;-86
2023/12/13 03:43:52;;;;;;;4.00;2.00;;;;;;;;;;5052984;28;20202;-86
2023/12/13 03:46:21;;;;;;;2.20;2.00;;;;;;;;;;5032678;28;20269;-86
2023/12/13 03:48:49;;;;;;;5.93;1.93;;;;;;;;;;5032881;28;20205;-86
2023/12/13 03:51:16;;;;;;;4.40;1.80;;;;;;;;;;5032072;28;20246;-86
2023/12/13 03:53:43;;;;;;;5.87;1.90;;;;;;;;;;5050692;28;20206;-86
2023/12/13 03:56:11;;;;;;;1.83;1.63;;;;;;;;;;5052184;28;20437;-85
2023/12/13 03:58:38;;;;;;;7.43;2.20;;;;;;;;;;5052509;28;20238;-85
2023/12/13 04:01:05;;;;;;;6.20;1.77;;;;;;;;;;5051787;28;20712;-85
2023/12/13 04:03:34;;;;;;;3.67;2.00;;;;;;;;;;5052708;28;20210;-86
2023/12/13 04:06:03;;;;;;;2.13;1.93;;;;;;;;;;5052202;28;20325;-86
2023/12/13 04:08:30;;;;;;;2.40;2.20;;;;;;;;;;5052254;28;20272;-85
2023/12/13 04:10:57;;;;;;;1.90;1.80;;;;;;;;;;5051826;28;20712;-85
2023/12/13 04:13:24;;;;;;;4.50;1.87;;;;;;;;;;5039282;28;20210;-86
2023/12/13 04:15:51;;;;;;;2.07;1.90;;;;;;;;;;5052005;28;20245;-85
2023/12/13 04:18:18;;;;;;;2.23;1.77;;;;;;;;;;5046602;28;20280;-85
2023/12/13 04:20:45;;;;;;;2.20;1.93;;;;;;;;;;5036469;28;20709;-85
2023/12/13 04:23:13;;;;;;;5.03;1.70;;;;;;;;;;5053636;28;20275;-85
2023/12/13 04:25:40;;;;;;;3.67;2.17;;;;;;;;;;5030954;28;20245;-86
2023/12/13 04:28:08;;;;;;;2.27;1.70;;;;;;;;;;5032462;28;20226;-85
2023/12/13 04:30:35;;;;;;;2.40;1.90;;;;;;;;;;5042277;28;20237;-85
2023/12/13 04:33:02;;;;;;;3.93;2.20;;;;;;;;;;5052095;28;20206;-85
2023/12/13 04:35:29;;;;;;;2.50;1.70;;;;;;;;;;5051323;28;20715;-85
2023/12/13 04:37:56;;;;;;;2.97;1.97;;;;;;;;;;5051848;28;20222;-85
2023/12/13 04:40:25;;;;;;;3.60;2.13;;;;;;;;;;5051195;28;20230;-85
2023/12/13 04:42:53;;;;;;;1.90;1.80;;;;;;;;;;5046431;28;20199;-85
2023/12/13 04:45:20;;;;;;;1.60;1.60;;;;;;;;;;5031678;28;20211;-85
2023/12/13 04:47:47;;;;;;;5.77;2.00;;;;;;;;;;5031652;28;20621;-85
2023/12/13 04:50:14;;;;;;;4.63;2.30;;;;;;;;;;5045369;28;20206;-85
2023/12/13 04:52:41;;;;;;;2.00;1.87;;;;;;;;;;5051886;28;20643;-85
2023/12/13 04:55:09;;;;;;;4.00;2.33;;;;;;;;;;5051552;28;20214;-85
2023/12/13 04:57:37;;;;;;;5.03;2.10;;;;;;;;;;5044004;28;20226;-85
2023/12/13 05:00:06;;;;;;;2.17;2.07;;;;;;;;;;5046295;28;20692;-85
2023/12/13 05:02:33;;;;;;;1.90;1.77;;;;;;;;;;5051730;28;20228;-85
2023/12/13 05:05:00;;;;;;;6.20;2.07;;;;;;;;;;5051814;28;20652;-85
2023/12/13 05:07:28;;;;;;;5.40;2.00;;;;;;;;;;5051232;28;20241;-86
2023/12/13 05:09:56;;;;;;;2.30;2.10;;;;;;;;;;5050954;28;20749;-85
2023/12/13 05:12:23;;;;;;;1.97;1.77;;;;;;;;;;5050686;28;20244;-85
2023/12/13 05:14:51;;;;;;;3.23;1.70;;;;;;;;;;5052052;28;20198;-85
2023/12/13 05:17:18;;;;;;;2.83;1.70;;;;;;;;;;5050876;28;20654;-84
2023/12/13 05:19:46;;;;;;;1.83;1.70;;;;;;;;;;5051274;28;20268;-81
2023/12/13 05:22:13;;;;;;;5.63;1.57;;;;;;;;;;5050184;28;20234;-81
2023/12/13 05:24:40;;;;;;;3.97;2.30;;;;;;;;;;5051229;28;20571;-82
2023/12/13 05:27:07;;;;;;;2.57;2.30;;;;;;;;;;5050937;28;20238;-82
2023/12/13 05:29:34;;;;;;;1.67;1.57;;;;;;;;;;5051344;28;20533;-82
2023/12/13 05:32:02;;;;;;;4.27;1.93;;;;;;;;;;5050648;28;20295;-82
2023/12/13 05:34:29;;;;;;;3.97;1.93;;;;;;;;;;5038505;28;20617;-81
2023/12/13 05:36:56;;;;;;;2.13;1.90;;;;;;;;;;5036038;28;20238;-82
2023/12/13 05:39:23;;;;;;;2.20;2.10;;;;;;;;;;5034950;28;20573;-83
2023/12/13 05:41:50;;;;;;;1.30;1.30;;;;;;;;;;5034627;28;20733;-85
2023/12/13 05:44:17;;;;;;;2.63;2.43;;;;;;;;;;5048751;28;20229;-83
2023/12/13 05:46:44;;;;;;;2.03;1.83;;;;;;;;;;5054375;28;20234;-84
2023/12/13 05:49:13;;;;;;;5.20;2.00;;;;;;;;;;5054938;28;20264;-83
2023/12/13 05:51:40;;;;;;;2.00;1.90;;;;;;;;;;5055926;28;20307;-82
2023/12/13 05:54:07;;;;;;;4.10;2.17;;;;;;;;;;5061782;28;20204;-83
2023/12/13 05:56:35;;;;;;;1.77;1.67;;;;;;;;;;5058878;28;20584;-82
2023/12/13 05:59:02;;;;;;;2.97;1.97;;;;;;;;;;5056964;28;20241;-82
2023/12/13 06:01:29;;;;;;;2.97;2.10;;;;;;;;;;5053906;28;20261;-82
2023/12/13 06:03:56;;;;;;;3.97;1.70;;;;;;;;;;5054716;28;20227;-82
2023/12/13 06:06:24;;;;;;;5.97;1.90;;;;;;;;;;5054041;28;20321;-82
2023/12/13 06:08:51;;;;;;;3.13;1.77;;;;;;;;;;5054536;28;20271;-83
2023/12/13 06:11:18;;;;;;;4.40;2.63;;;;;;;;;;5053655;28;20233;-80
2023/12/13 06:13:45;;;;;;;2.23;1.80;;;;;;;;;;5054360;28;20214;-80
2023/12/13 06:16:13;;;;;;;4.30;1.90;;;;;;;;;;5054072;28;20234;-81
2023/12/13 06:18:40;;;;;;;2.30;2.10;;;;;;;;;;5054300;28;20238;-80
2023/12/13 06:21:07;;;;;;;2.53;2.10;;;;;;;;;;5053795;28;20295;-80
2023/12/13 06:23:36;;;;;;;2.60;1.73;;;;;;;;;;5054322;28;20300;-80
2023/12/13 06:26:03;;;;;;;5.30;1.93;;;;;;;;;;5053887;28;20238;-80
2023/12/13 06:28:30;;;;;;;2.90;2.40;;;;;;;;;;5053922;28;20311;-80
2023/12/13 06:30:57;;;;;;;9.37;2.33;;;;;;;;;;5053243;28;20229;-80
2023/12/13 06:33:24;;;;;;;3.43;2.07;;;;;;;;;;5054124;28;20229;-80
2023/12/13 06:35:51;;;;;;;4.33;1.67;;;;;;;;;;5063632;28;20237;-79
2023/12/13 06:38:18;;;;;;;2.30;1.67;;;;;;;;;;5056385;28;20316;-80
2023/12/13 06:40:47;;;;;;;4.07;1.70;;;;;;;;;;5053397;28;20241;-80
2023/12/13 06:43:14;;;;;;;1.90;1.80;;;;;;;;;;5037314;28;20206;-80
2023/12/13 06:45:41;;;;;;;1.97;1.87;;;;;;;;;;5042766;28;20289;-80
2023/12/13 06:48:08;;;;;;;2.00;1.73;;;;;;;;;;5041745;28;20226;-79
2023/12/13 06:50:36;;;;;;;6.20;2.00;;;;;;;;;;5044568;28;20724;-79
2023/12/13 06:53:03;;;;;;;3.40;2.40;;;;;;;;;;5047009;28;20285;-79
2023/12/13 06:55:30;;;;;;;4.10;2.50;;;;;;;;;;5043353;28;20257;-79
2023/12/13 06:57:59;;;;;;;35.90;17.67;;;;;;;;;;5044786;28;20218;-79
2023/12/13 07:00:27;;;;;;;14.20;7.73;;;;;;;;;;5040309;28;20242;-80
2023/12/13 07:02:54;;;;;;;24.43;12.07;;;;;;;;;;5052475;28;20206;-80
2023/12/13 07:05:21;;;;;;;15.87;8.77;;;;;;;;;;5033358;28;20198;-79
2023/12/13 07:07:48;;;;;;;6.03;3.50;;;;;;;;;;5049020;28;20226;-80
2023/12/13 07:10:17;;;;;;;7.80;4.27;;;;;;;;;;5048257;28;20223;-80
2023/12/13 07:12:46;;;;;;;17.37;9.67;;;;;;;;;;5038221;28;20222;-80
2023/12/13 07:15:14;;;;;;;13.93;6.23;;;;;;;;;;5038689;28;20245;-81
2023/12/13 07:17:42;;;;;;;9.23;4.10;;;;;;;;;;5040044;28;20651;-80
2023/12/13 07:20:11;;;;;;;17.83;7.77;;;;;;;;;;5042125;28;20234;-82
2023/12/13 07:22:39;;;;;;;14.97;4.50;;;;;;;;;;5045776;28;20209;-82
2023/12/13 07:25:07;;;;;;;6.63;4.60;;;;;;;;;;5045353;28;20202;-81
2023/12/13 07:27:35;;;;;;;3.37;2.57;;;;;;;;;;5040239;28;20639;-82
2023/12/13 07:30:02;;;;;;;7.33;2.80;;;;;;;;;;5047487;28;20214;-82
2023/12/13 07:32:31;;;;;;;3.90;2.77;;;;;;;;;;5050477;28;20226;-81
2023/12/13 07:34:58;;;;;;;3.67;2.70;;;;;;;;;;5051002;28;20206;-82
2023/12/13 07:37:25;;;;;;;8.90;4.07;;;;;;;;;;5049942;28;20237;-82
2023/12/13 07:39:52;;;;;;;6.50;3.33;;;;;;;;;;5050881;28;20225;-82
2023/12/13 07:42:19;;;;;;;14.67;8.87;;;;;;;;;;5050212;28;20233;-82
2023/12/13 07:44:46;;;;;;;9.13;4.90;;;;;;;;;;5045856;28;20207;-82
2023/12/13 07:47:13;;;;;;;8.13;3.97;;;;;;;;;;5047414;28;20321;-82
2023/12/13 07:49:40;;;;;;;4.73;3.63;;;;;;;;;;5050868;28;20202;-82
2023/12/13 07:52:08;;;;;;;16.27;9.37;;;;;;;;;;5050491;28;20241;-82
2023/12/13 07:54:35;;;;;;;18.57;7.97;;;;;;;;;;5050111;28;20202;-82
2023/12/13 07:57:03;;;;;;;15.93;6.43;;;;;;;;;;5049629;28;20678;-82
2023/12/13 07:59:30;;;;;;;5.17;3.23;;;;;;;;;;5050718;28;20222;-82
2023/12/13 08:01:57;;;;;;;3.40;2.90;;;;;;;;;;5050320;28;20295;-82
2023/12/13 08:04:24;;;;;;;7.40;2.67;;;;;;;;;;5049744;28;20256;-82
2023/12/13 08:06:53;;;;;;;4.87;2.70;;;;;;;;;;5049700;28;20237;-83
2023/12/13 08:09:20;;;;;;;3.20;2.77;;;;;;;;;;5049648;28;20309;-82
2023/12/13 08:11:48;;;;;;;8.07;2.77;;;;;;;;;;5049952;28;20284;-82
2023/12/13 08:14:15;;;;;;;3.93;3.20;;;;;;;;;;5049633;28;20222;-82
2023/12/13 08:16:42;;;;;;;4.07;2.90;;;;;;;;;;5049735;28;20236;-82
2023/12/13 08:19:09;;;;;;;7.40;3.00;;;;;;;;;;5050253;28;20206;-82
2023/12/13 08:21:40;;;;;;;7.90;3.07;;;;;;;;;;5040631;28;20303;-82
2023/12/13 08:24:09;;;;;;;5.03;3.00;;;;;;;;;;5047198;28;20214;-82
2023/12/13 08:26:36;;;;;;;3.47;2.87;;;;;;;;;;5042312;28;20322;-82
2023/12/13 08:29:04;;;;;;;9.77;3.90;;;;;;;;;;5051096;28;20210;-82
2023/12/13 08:31:31;;;;;;;3.97;3.47;;;;;;;;;;5050332;28;20673;-82
2023/12/13 08:33:59;;;;;;;8.73;3.50;;;;;;;;;;5050668;28;20213;-82
2023/12/13 08:36:27;;;;;;;3.00;2.50;;;;;;;;;;5049836;28;20712;-82
2023/12/13 08:38:54;;;;;;;4.10;3.70;;;;;;;;;;5050976;28;20205;-83
2023/12/13 08:41:22;;;;;;;5.13;4.27;;;;;;;;;;5049922;28;20229;-82
2023/12/13 08:43:49;;;;;;;4.57;3.30;;;;;;;;;;5050940;28;20205;-83
2023/12/13 08:46:16;;;;;;;4.63;2.80;;;;;;;;;;5049648;28;20226;-83
2023/12/13 08:48:44;;;;;;;3.20;2.80;;;;;;;;;;5050609;28;20252;-82
2023/12/13 08:51:11;;;;;;;6.63;3.27;;;;;;;;;;5050033;28;20226;-82
2023/12/13 08:53:38;;;;;;;5.30;3.00;;;;;;;;;;5050147;28;20217;-81
2023/12/13 08:56:06;;;;;;;7.00;4.17;;;;;;;;;;5049687;28;20700;-82
2023/12/13 08:58:34;;;;;;;7.37;3.60;;;;;;;;;;5050256;28;20323;-81
2023/12/13 09:01:01;;;;;;;5.30;3.20;;;;;;;;;;5049905;28;20317;-81
2023/12/13 09:03:28;;;;;;;5.07;3.20;;;;;;;;;;5050494;28;20202;-81
2023/12/13 09:05:55;;;;;;;5.23;3.17;;;;;;;;;;5050368;28;20227;-82
2023/12/13 09:08:23;;;;;;;6.13;3.43;;;;;;;;;;5050453;28;20784;-82
2023/12/13 09:10:50;;;;;;;4.23;3.20;;;;;;;;;;5049703;28;20226;-82
2023/12/13 09:13:17;;;;;;;11.97;7.87;;;;;;;;;;5053725;28;20213;-83
2023/12/13 09:15:45;;;;;;;6.43;4.73;;;;;;;;;;5054046;28;20280;-82
2023/12/13 09:18:12;;;;;;;3.87;3.50;;;;;;;;;;5054269;28;20642;-82
2023/12/13 09:20:40;;;;;;;3.80;3.37;;;;;;;;;;5053639;28;20225;-82
2023/12/13 09:23:07;;;;;;;6.00;3.20;;;;;;;;;;5054067;28;20208;-82
2023/12/13 09:25:34;;;;;;;4.03;3.63;;;;;;;;;;5053532;28;20230;-81
2023/12/13 09:28:01;;;;;;;4.10;2.30;;;;;;;;;;5054128;28;20225;-82
2023/12/13 09:30:28;;;;;;;3.27;2.60;;;;;;;;;;5053708;28;20263;-82
2023/12/13 09:32:57;;;;;;;2.07;1.97;;;;;;;;;;5054155;28;20332;-82
2023/12/13 09:35:24;;;;;;;5.10;2.43;;;;;;;;;;5053401;28;20261;-82
2023/12/13 09:37:51;;;;;;;4.40;2.80;;;;;;;;;;5053645;28;20567;-82
2023/12/13 09:40:19;;;;;;;4.77;2.90;;;;;;;;;;5053473;28;20276;-82
2023/12/13 09:42:47;;;;;;;7.73;3.27;;;;;;;;;;5053875;28;20202;-82
2023/12/13 09:45:17;;;;;;;4.60;2.33;;;;;;;;;;5053478;28;20202;-81
2023/12/13 09:47:44;;;;;;;2.53;2.33;;;;;;;;;;5045833;28;20627;-81
2023/12/13 09:50:13;;;;;;;2.57;2.37;;;;;;;;;;5053353;28;20590;-81
2023/12/13 09:52:41;;;;;;;2.23;2.07;;;;;;;;;;5045489;28;20212;-81
2023/12/13 09:55:09;;;;;;;2.17;2.07;;;;;;;;;;5053400;28;20202;-82
2023/12/13 09:57:36;;;;;;;2.27;2.03;;;;;;;;;;5053175;28;20577;-81
2023/12/13 10:00:03;;;;;;;3.33;2.23;;;;;;;;;;5052536;28;20217;-81
2023/12/13 10:02:30;;;;;;;2.27;2.17;;;;;;;;;;5053201;28;20210;-81
2023/12/13 10:05:00;;;;;;;2.80;2.57;;;;;;;;;;5053565;28;20248;-81
2023/12/13 10:07:29;;;;;;;4.30;3.13;;;;;;;;;;5052663;28;20771;-82
2023/12/13 10:09:56;;;;;;;7.03;4.27;;;;;;;;;;5053575;28;20202;-81
2023/12/13 10:12:23;;;;;;;3.23;2.93;;;;;;;;;;5052403;28;20253;-82
2023/12/13 10:14:50;;;;;;;6.60;4.40;;;;;;;;;;5053666;28;20209;-81
2023/12/13 10:17:20;;;;;;;3.10;2.90;;;;;;;;;;5052668;28;20237;-82
2023/12/13 10:19:47;;;;;;;6.53;4.07;;;;;;;;;;5053630;28;20285;-82
2023/12/13 10:22:15;;;;;;;5.13;3.73;;;;;;;;;;5052586;28;20226;-81
2023/12/13 10:24:43;;;;;;;6.50;5.27;;;;;;;;;;5043937;28;20252;-82
2023/12/13 10:27:11;;;;;;;3.63;3.33;;;;;;;;;;5052355;28;20324;-81
2023/12/13 10:29:38;;;;;;;3.40;3.10;;;;;;;;;;5053100;28;20202;-81
2023/12/13 10:32:05;;;;;;;5.60;4.57;;;;;;;;;;5052701;28;20232;-82
2023/12/13 10:34:32;;;;;;;6.40;4.33;;;;;;;;;;5052963;28;20202;-82
2023/12/13 10:36:59;;;;;;;3.20;2.90;;;;;;;;;;5052083;28;20234;-82
2023/12/13 10:39:27;;;;;;;2.90;2.60;;;;;;;;;;5053090;28;20260;-82
2023/12/13 10:41:56;;;;;;;2.83;2.63;;;;;;;;;;5052449;28;20784;-81
2023/12/13 10:44:24;;;;;;;11.60;7.40;;;;;;;;;;5052766;28;20260;-81
2023/12/13 10:46:56;;;;;;;5.53;3.97;;;;;;;;;;5052044;28;20237;-80
2023/12/13 10:49:23;;;;;;;5.00;3.80;;;;;;;;;;5052660;28;20202;-80
2023/12/13 10:51:51;;;;;;;7.00;3.90;;;;;;;;;;5052232;28;20257;-82
2023/12/13 10:54:19;;;;;;;4.20;3.77;;;;;;;;;;5052643;28;20244;-82
2023/12/13 10:56:46;;;;;;;4.37;3.03;;;;;;;;;;5051684;28;20233;-82
2023/12/13 10:59:15;;;;;;;5.13;3.30;;;;;;;;;;5052897;28;20206;-82
2023/12/13 11:01:43;;;;;;;2.77;1.90;;;;;;;;;;5051429;28;20229;-81
2023/12/13 11:04:12;;;;;;;4.47;2.93;;;;;;;;;;5052877;28;20202;-82
2023/12/13 11:06:40;;;;;;;3.70;2.50;;;;;;;;;;5051525;28;20289;-82
2023/12/13 11:09:13;;;;;;;2.97;1.70;;;;;;;;;;5052484;28;20293;-82
2023/12/13 11:11:40;;;;;;;3.20;2.20;;;;;;;;;;5051554;28;20232;-82
2023/12/13 11:14:08;;;;;;;2.43;2.20;;;;;;;;;;5052475;28;20214;-81
2023/12/13 11:16:40;;;;;;;5.33;2.23;;;;;;;;;;5051861;28;20237;-81
2023/12/13 11:19:07;;;;;;;1.90;1.80;;;;;;;;;;5052693;28;20202;-81
2023/12/13 11:21:35;;;;;;;2.30;2.00;;;;;;;;;;5051374;28;20241;-82
2023/12/13 11:24:13;;;;;;;2.33;2.00;;;;;;;;;;5052089;28;20289;-82
2023/12/13 11:26:42;;;;;;;1.80;1.70;;;;;;;;;;5051245;28;20244;-83
2023/12/13 11:29:15;;;;;;;1.80;1.70;;;;;;;;;;5052135;28;20194;-82
2023/12/13 11:31:51;;;;;;;1.33;1.33;;;;;;;;;;5051276;28;20226;-82
2023/12/13 11:34:18;;;;;;;1.80;1.70;;;;;;;;;;5052245;28;20255;-82
2023/12/13 11:36:46;;;;;;;2.87;2.00;;;;;;;;;;5050895;28;20312;-82
2023/12/13 11:39:13;;;;;;;1.70;1.60;;;;;;;;;;5051859;28;20289;-82
2023/12/13 11:41:41;;;;;;;2.10;1.87;;;;;;;;;;5051066;28;20282;-82
2023/12/13 11:44:08;;;;;;;2.83;1.80;;;;;;;;;;5051962;28;20210;-82
2023/12/13 11:46:35;;;;;;;2.53;2.17;;;;;;;;;;5051131;28;20253;-81
2023/12/13 11:49:03;;;;;;;1.70;1.60;;;;;;;;;;5051507;28;20255;-81
2023/12/13 11:51:30;;;;;;;1.60;1.50;;;;;;;;;;5050887;28;20655;-81
2023/12/13 11:53:57;;;;;;;1.90;1.70;;;;;;;;;;5053783;28;20201;-81
2023/12/13 11:56:24;;;;;;;1.93;1.40;;;;;;;;;;5052714;28;20232;-80
2023/12/13 11:58:51;;;;;;;1.60;1.50;;;;;;;;;;5052368;28;20259;-80
2023/12/13 12:01:19;;;;;;;2.03;1.83;;;;;;;;;;5050872;28;20226;-82
2023/12/13 12:03:46;;;;;;;2.00;1.50;;;;;;;;;;5051138;28;20244;-82
2023/12/13 12:06:15;;;;;;;2.73;1.97;;;;;;;;;;5050727;28;20229;-82
2023/12/13 12:08:43;;;;;;;1.80;1.70;;;;;;;;;;5051095;28;20210;-81
2023/12/13 12:11:13;;;;;;;4.57;2.00;;;;;;;;;;5050641;28;20250;-81
2023/12/13 12:13:41;;;;;;;4.60;2.10;;;;;;;;;;5050640;28;20252;-81
2023/12/13 12:16:08;;;;;;;2.43;2.20;;;;;;;;;;5050505;28;20664;-82
2023/12/13 12:18:35;;;;;;;2.07;1.90;;;;;;;;;;5050741;28;20280;-82
2023/12/13 12:21:02;;;;;;;3.10;2.43;;;;;;;;;;5050574;28;20605;-82
2023/12/13 12:23:32;;;;;;;2.63;2.00;;;;;;;;;;5051041;28;20198;-82
2023/12/13 12:25:59;;;;;;;3.83;1.97;;;;;;;;;;5050387;28;20222;-81
2023/12/13 12:28:27;;;;;;;2.97;2.03;;;;;;;;;;5050542;28;20716;-81
2023/12/13 12:30:54;;;;;;;6.77;2.20;;;;;;;;;;5050431;28;20646;-81
2023/12/13 12:33:21;;;;;;;3.10;2.80;;;;;;;;;;5053806;28;20206;-79
2023/12/13 12:35:48;;;;;;;2.50;2.30;;;;;;;;;;5050660;28;20287;-81
2023/12/13 12:38:15;;;;;;;3.07;2.43;;;;;;;;;;5050281;28;20221;-81
2023/12/13 12:40:44;;;;;;;2.93;2.10;;;;;;;;;;5050263;28;20284;-81
2023/12/13 12:43:11;;;;;;;1.50;1.50;;;;;;;;;;5051091;28;20206;-81
2023/12/13 12:45:38;;;;;;;3.60;2.50;;;;;;;;;;5050178;28;20237;-82
2023/12/13 12:48:06;;;;;;;4.53;2.23;;;;;;;;;;5050200;28;20221;-81
2023/12/13 12:50:33;;;;;;;5.87;2.83;;;;;;;;;;5049679;28;20911;-82
2023/12/13 12:53:00;;;;;;;7.97;2.63;;;;;;;;;;5050831;28;20549;-82
2023/12/13 12:55:27;;;;;;;3.77;2.07;;;;;;;;;;5050247;28;20233;-81
2023/12/13 12:57:55;;;;;;;2.10;1.87;;;;;;;;;;5050274;28;20629;-82
2023/12/13 13:00:22;;;;;;;3.87;1.90;;;;;;;;;;5050400;28;20241;-82
2023/12/13 13:02:50;;;;;;;3.00;2.43;;;;;;;;;;5049741;28;20226;-82
2023/12/13 13:05:17;;;;;;;2.93;1.80;;;;;;;;;;5050297;28;20209;-81
2023/12/13 13:07:44;;;;;;;2.40;2.10;;;;;;;;;;5050175;28;20276;-82
2023/12/13 13:10:11;;;;;;;2.73;2.07;;;;;;;;;;5050058;28;20556;-82
2023/12/13 13:12:38;;;;;;;3.47;2.07;;;;;;;;;;5050389;28;20292;-82
2023/12/13 13:15:07;;;;;;;4.20;2.83;;;;;;;;;;5049952;28;20209;-82
2023/12/13 13:17:34;;;;;;;1.93;1.83;;;;;;;;;;5050076;28;20226;-81
2023/12/13 13:20:10;;;;;;;2.13;1.93;;;;;;;;;;5050542;28;20202;-82
2023/12/13 13:22:37;;;;;;;2.03;1.90;;;;;;;;;;5049718;28;20707;-82
2023/12/13 13:25:05;;;;;;;2.37;1.70;;;;;;;;;;5049994;28;20260;-82
2023/12/13 13:27:32;;;;;;;1.73;1.63;;;;;;;;;;5049708;28;20236;-82
2023/12/13 13:29:59;;;;;;;2.53;2.20;;;;;;;;;;5050350;28;20289;-82
2023/12/13 13:32:28;;;;;;;4.43;2.23;;;;;;;;;;5050056;28;20244;-82
2023/12/13 13:34:55;;;;;;;3.43;2.03;;;;;;;;;;5050282;28;20214;-82
2023/12/13 13:37:22;;;;;;;2.77;2.40;;;;;;;;;;5049519;28;20602;-81
2023/12/13 13:39:49;;;;;;;2.13;1.80;;;;;;;;;;5049607;28;20210;-81
2023/12/13 13:42:17;;;;;;;4.47;2.00;;;;;;;;;;5049592;28;20704;-82
2023/12/13 13:44:44;;;;;;;2.20;1.83;;;;;;;;;;5049938;28;20206;-81
2023/12/13 13:47:11;;;;;;;2.00;1.90;;;;;;;;;;5049183;28;20761;-81
2023/12/13 13:49:39;;;;;;;2.27;1.80;;;;;;;;;;5048214;28;20214;-81
2023/12/13 13:52:06;;;;;;;4.83;2.67;;;;;;;;;;5049459;28;20233;-80
2023/12/13 13:54:33;;;;;;;4.03;2.27;;;;;;;;;;5050003;28;20293;-80
2023/12/13 13:57:02;;;;;;;3.87;2.50;;;;;;;;;;5049270;28;20234;-81
2023/12/13 13:59:29;;;;;;;7.43;4.90;;;;;;;;;;5053522;28;20202;-81
2023/12/13 14:01:56;;;;;;;3.20;2.60;;;;;;;;;;5052949;28;20700;-81
2023/12/13 14:04:24;;;;;;;2.63;2.30;;;;;;;;;;5053376;28;20210;-81
2023/12/13 14:06:52;;;;;;;2.63;2.30;;;;;;;;;;5052780;28;20238;-82
2023/12/13 14:09:19;;;;;;;2.40;2.20;;;;;;;;;;5053484;28;20202;-81
2023/12/13 14:11:46;;;;;;;7.10;2.73;;;;;;;;;;5052867;28;20316;-82
2023/12/13 14:14:13;;;;;;;2.70;2.33;;;;;;;;;;5053279;28;20270;-81
2023/12/13 14:16:40;;;;;;;2.90;2.50;;;;;;;;;;5051302;28;20275;-80
2023/12/13 14:19:07;;;;;;;3.00;2.27;;;;;;;;;;5053267;28;20206;-80
2023/12/13 14:21:36;;;;;;;4.47;2.53;;;;;;;;;;5052305;28;20234;-80
2023/12/13 14:24:04;;;;;;;5.33;2.97;;;;;;;;;;5053077;28;20568;-81
2023/12/13 14:26:31;;;;;;;5.20;2.80;;;;;;;;;;5052461;28;20612;-81
2023/12/13 14:28:58;;;;;;;3.10;2.27;;;;;;;;;;5053072;28;20271;-80
2023/12/13 14:31:25;;;;;;;4.73;2.33;;;;;;;;;;5052350;28;20222;-80
2023/12/13 14:33:53;;;;;;;2.33;2.00;;;;;;;;;;5052658;28;20292;-79
2023/12/13 14:36:20;;;;;;;3.03;2.73;;;;;;;;;;5052339;28;20608;-79
2023/12/13 14:38:47;;;;;;;3.73;2.37;;;;;;;;;;5052732;28;20255;-78
2023/12/13 14:41:16;;;;;;;5.70;3.40;;;;;;;;;;5051400;28;20308;-78
2023/12/13 14:43:44;;;;;;;3.13;2.83;;;;;;;;;;5051906;28;20668;-78
2023/12/13 14:46:11;;;;;;;4.70;2.73;;;;;;;;;;5051777;28;20234;-77